sensor_id;sensor_type;location;lat;lon;timestamp;P1;durP1;ratioP1;P2;durP2;ratioP2
67227;SDS011;54139;42.616;23.748;2023-08-06T00:00:38;12.23;;;6.63;;
67227;SDS011;54139;42.616;23.748;2023-08-06T00:03:03;8.93;;;5.82;;
67227;SDS011;54139;42.616;23.748;2023-08-06T00:05:29;13.43;;;6.25;;
67227;SDS011;54139;42.616;23.748;2023-08-06T00:07:54;12.35;;;6.75;;
67227;SDS011;54139;42.616;23.748;2023-08-06T00:10:20;11.23;;;6.53;;
67227;SDS011;54139;42.616;23.748;2023-08-06T00:12:45;9.98;;;5.60;;
67227;SDS011;54139;42.616;23.748;2023-08-06T00:15:11;10.63;;;5.75;;
67227;SDS011;54139;42.616;23.748;2023-08-06T00:17:37;7.82;;;6.10;;
67227;SDS011;54139;42.616;23.748;2023-08-06T00:20:02;10.68;;;6.20;;
67227;SDS011;54139;42.616;23.748;2023-08-06T00:22:30;11.73;;;6.28;;
67227;SDS011;54139;42.616;23.748;2023-08-06T00:24:58;6.82;;;5.70;;
67227;SDS011;54139;42.616;23.748;2023-08-06T00:27:24;5.75;;;5.25;;
67227;SDS011;54139;42.616;23.748;2023-08-06T00:29:50;8.73;;;5.97;;
67227;SDS011;54139;42.616;23.748;2023-08-06T00:32:15;9.88;;;5.97;;
67227;SDS011;54139;42.616;23.748;2023-08-06T00:34:42;6.72;;;6.13;;
67227;SDS011;54139;42.616;23.748;2023-08-06T00:37:07;7.35;;;5.90;;
67227;SDS011;54139;42.616;23.748;2023-08-06T00:39:32;9.65;;;6.45;;
67227;SDS011;54139;42.616;23.748;2023-08-06T00:41:58;7.93;;;6.28;;
67227;SDS011;54139;42.616;23.748;2023-08-06T00:44:23;7.55;;;6.20;;
67227;SDS011;54139;42.616;23.748;2023-08-06T00:46:49;6.53;;;5.85;;
67227;SDS011;54139;42.616;23.748;2023-08-06T00:49:14;8.20;;;7.18;;
67227;SDS011;54139;42.616;23.748;2023-08-06T00:51:40;13.35;;;8.30;;
67227;SDS011;54139;42.616;23.748;2023-08-06T00:54:07;7.28;;;6.38;;
67227;SDS011;54139;42.616;23.748;2023-08-06T00:56:32;7.47;;;6.88;;
67227;SDS011;54139;42.616;23.748;2023-08-06T00:59:00;7.65;;;6.45;;
67227;SDS011;54139;42.616;23.748;2023-08-06T01:01:26;7.20;;;6.38;;
67227;SDS011;54139;42.616;23.748;2023-08-06T01:03:52;9.10;;;6.90;;
67227;SDS011;54139;42.616;23.748;2023-08-06T01:06:19;12.10;;;7.72;;
67227;SDS011;54139;42.616;23.748;2023-08-06T01:08:57;10.05;;;7.05;;
67227;SDS011;54139;42.616;23.748;2023-08-06T01:11:31;8.52;;;7.72;;
67227;SDS011;54139;42.616;23.748;2023-08-06T01:14:23;10.90;;;8.05;;
67227;SDS011;54139;42.616;23.748;2023-08-06T01:16:53;10.73;;;7.10;;
67227;SDS011;54139;42.616;23.748;2023-08-06T01:19:20;10.98;;;7.75;;
67227;SDS011;54139;42.616;23.748;2023-08-06T01:21:46;7.75;;;7.05;;
67227;SDS011;54139;42.616;23.748;2023-08-06T01:24:11;8.02;;;7.25;;
67227;SDS011;54139;42.616;23.748;2023-08-06T01:26:48;9.52;;;7.50;;
67227;SDS011;54139;42.616;23.748;2023-08-06T01:29:19;12.82;;;7.60;;
67227;SDS011;54139;42.616;23.748;2023-08-06T01:31:48;7.70;;;7.20;;
67227;SDS011;54139;42.616;23.748;2023-08-06T01:34:23;7.88;;;7.22;;
67227;SDS011;54139;42.616;23.748;2023-08-06T01:36:52;8.35;;;7.70;;
67227;SDS011;54139;42.616;23.748;2023-08-06T01:39:18;8.25;;;7.65;;
67227;SDS011;54139;42.616;23.748;2023-08-06T01:41:46;8.82;;;8.23;;
67227;SDS011;54139;42.616;23.748;2023-08-06T01:44:12;8.48;;;7.60;;
67227;SDS011;54139;42.616;23.748;2023-08-06T01:46:37;9.55;;;8.13;;
67227;SDS011;54139;42.616;23.748;2023-08-06T01:49:03;9.40;;;8.40;;
67227;SDS011;54139;42.616;23.748;2023-08-06T01:51:28;9.55;;;8.55;;
67227;SDS011;54139;42.616;23.748;2023-08-06T01:53:54;8.85;;;8.25;;
67227;SDS011;54139;42.616;23.748;2023-08-06T01:56:20;8.90;;;8.07;;
67227;SDS011;54139;42.616;23.748;2023-08-06T01:58:46;10.40;;;9.15;;
67227;SDS011;54139;42.616;23.748;2023-08-06T02:01:11;9.35;;;8.55;;
67227;SDS011;54139;42.616;23.748;2023-08-06T02:03:36;9.50;;;8.55;;
67227;SDS011;54139;42.616;23.748;2023-08-06T02:06:02;10.02;;;7.32;;
67227;SDS011;54139;42.616;23.748;2023-08-06T02:08:27;8.85;;;8.05;;
67227;SDS011;54139;42.616;23.748;2023-08-06T02:10:53;11.10;;;10.07;;
67227;SDS011;54139;42.616;23.748;2023-08-06T02:13:18;11.10;;;10.10;;
67227;SDS011;54139;42.616;23.748;2023-08-06T02:15:45;10.07;;;9.38;;
67227;SDS011;54139;42.616;23.748;2023-08-06T02:18:12;11.88;;;9.50;;
67227;SDS011;54139;42.616;23.748;2023-08-06T02:20:39;10.30;;;9.35;;
67227;SDS011;54139;42.616;23.748;2023-08-06T02:23:05;12.75;;;9.90;;
67227;SDS011;54139;42.616;23.748;2023-08-06T02:25:30;10.70;;;9.90;;
67227;SDS011;54139;42.616;23.748;2023-08-06T02:27:55;11.75;;;10.85;;
67227;SDS011;54139;42.616;23.748;2023-08-06T02:30:21;14.88;;;10.70;;
67227;SDS011;54139;42.616;23.748;2023-08-06T02:32:46;11.73;;;9.23;;
67227;SDS011;54139;42.616;23.748;2023-08-06T02:35:12;11.73;;;10.73;;
67227;SDS011;54139;42.616;23.748;2023-08-06T02:37:37;11.00;;;9.80;;
67227;SDS011;54139;42.616;23.748;2023-08-06T02:40:02;10.82;;;10.02;;
67227;SDS011;54139;42.616;23.748;2023-08-06T02:42:28;10.43;;;9.73;;
67227;SDS011;54139;42.616;23.748;2023-08-06T02:44:54;11.05;;;10.15;;
67227;SDS011;54139;42.616;23.748;2023-08-06T02:47:22;12.07;;;10.97;;
67227;SDS011;54139;42.616;23.748;2023-08-06T02:49:47;12.13;;;11.23;;
67227;SDS011;54139;42.616;23.748;2023-08-06T02:52:13;12.50;;;11.30;;
67227;SDS011;54139;42.616;23.748;2023-08-06T02:54:38;12.73;;;11.50;;
67227;SDS011;54139;42.616;23.748;2023-08-06T02:57:04;11.23;;;10.27;;
67227;SDS011;54139;42.616;23.748;2023-08-06T02:59:30;11.80;;;10.90;;
67227;SDS011;54139;42.616;23.748;2023-08-06T03:01:56;12.35;;;11.32;;
67227;SDS011;54139;42.616;23.748;2023-08-06T03:04:21;12.90;;;11.68;;
67227;SDS011;54139;42.616;23.748;2023-08-06T03:06:48;11.07;;;10.18;;
67227;SDS011;54139;42.616;23.748;2023-08-06T03:09:16;13.25;;;11.38;;
67227;SDS011;54139;42.616;23.748;2023-08-06T03:11:42;11.82;;;11.02;;
67227;SDS011;54139;42.616;23.748;2023-08-06T03:14:08;15.82;;;13.13;;
67227;SDS011;54139;42.616;23.748;2023-08-06T03:16:34;14.63;;;13.25;;
67227;SDS011;54139;42.616;23.748;2023-08-06T03:18:59;15.90;;;14.40;;
67227;SDS011;54139;42.616;23.748;2023-08-06T03:21:25;15.70;;;14.40;;
67227;SDS011;54139;42.616;23.748;2023-08-06T03:23:50;17.10;;;15.80;;
67227;SDS011;54139;42.616;23.748;2023-08-06T03:26:15;19.23;;;16.85;;
67227;SDS011;54139;42.616;23.748;2023-08-06T03:28:42;18.90;;;17.30;;
67227;SDS011;54139;42.616;23.748;2023-08-06T03:31:08;18.15;;;16.55;;
67227;SDS011;54139;42.616;23.748;2023-08-06T03:33:34;18.60;;;16.98;;
67227;SDS011;54139;42.616;23.748;2023-08-06T03:35:59;21.27;;;16.45;;
67227;SDS011;54139;42.616;23.748;2023-08-06T03:59:00;0.00;;;0.00;;
67227;SDS011;54139;42.616;23.748;2023-08-06T04:01:25;0.00;;;0.00;;
67227;SDS011;54139;42.616;23.748;2023-08-06T04:05:08;0.00;;;0.00;;
67227;SDS011;54139;42.616;23.748;2023-08-06T04:07:34;0.00;;;0.00;;
67227;SDS011;54139;42.616;23.748;2023-08-06T04:10:00;0.00;;;0.00;;
67227;SDS011;54139;42.616;23.748;2023-08-06T04:12:26;0.00;;;0.00;;
67227;SDS011;54139;42.616;23.748;2023-08-06T04:14:51;0.00;;;0.00;;
67227;SDS011;54139;42.616;23.748;2023-08-06T04:17:19;0.00;;;0.00;;
67227;SDS011;54139;42.616;23.748;2023-08-06T04:19:46;0.00;;;0.00;;
67227;SDS011;54139;42.616;23.748;2023-08-06T04:22:12;0.00;;;0.00;;
67227;SDS011;54139;42.616;23.748;2023-08-06T04:24:37;0.00;;;0.00;;
67227;SDS011;54139;42.616;23.748;2023-08-06T04:27:02;0.00;;;0.00;;
67227;SDS011;54139;42.616;23.748;2023-08-06T04:29:28;0.00;;;0.00;;
67227;SDS011;54139;42.616;23.748;2023-08-06T04:31:53;0.00;;;0.00;;
67227;SDS011;54139;42.616;23.748;2023-08-06T04:34:18;0.00;;;0.00;;
67227;SDS011;54139;42.616;23.748;2023-08-06T04:36:43;0.00;;;0.00;;
67227;SDS011;54139;42.616;23.748;2023-08-06T04:39:09;0.00;;;0.00;;
67227;SDS011;54139;42.616;23.748;2023-08-06T04:41:34;0.00;;;0.00;;
67227;SDS011;54139;42.616;23.748;2023-08-06T04:43:59;0.00;;;0.00;;
67227;SDS011;54139;42.616;23.748;2023-08-06T04:46:24;0.00;;;0.00;;
67227;SDS011;54139;42.616;23.748;2023-08-06T04:48:50;0.00;;;0.00;;
67227;SDS011;54139;42.616;23.748;2023-08-06T04:51:15;0.00;;;0.00;;
67227;SDS011;54139;42.616;23.748;2023-08-06T04:53:40;0.00;;;0.00;;
67227;SDS011;54139;42.616;23.748;2023-08-06T04:56:05;0.00;;;0.00;;
67227;SDS011;54139;42.616;23.748;2023-08-06T04:58:31;0.00;;;0.00;;
67227;SDS011;54139;42.616;23.748;2023-08-06T05:00:56;874.03;;;845.83;;
67227;SDS011;54139;42.616;23.748;2023-08-06T05:03:22;1999.90;;;999.90;;
67227;SDS011;54139;42.616;23.748;2023-08-06T05:05:47;1074.55;;;999.90;;
67227;SDS011;54139;42.616;23.748;2023-08-06T05:08:15;311.98;;;300.13;;
67227;SDS011;54139;42.616;23.748;2023-08-06T05:10:44;109.40;;;104.65;;
67227;SDS011;54139;42.616;23.748;2023-08-06T05:13:10;19.27;;;18.67;;
67227;SDS011;54139;42.616;23.748;2023-08-06T05:15:35;1.73;;;1.73;;
67227;SDS011;54139;42.616;23.748;2023-08-06T05:18:00;0.00;;;0.00;;
67227;SDS011;54139;42.616;23.748;2023-08-06T05:20:25;0.00;;;0.00;;
67227;SDS011;54139;42.616;23.748;2023-08-06T05:22:51;0.00;;;0.00;;
67227;SDS011;54139;42.616;23.748;2023-08-06T05:25:16;0.00;;;0.00;;
67227;SDS011;54139;42.616;23.748;2023-08-06T05:27:41;0.00;;;0.00;;
67227;SDS011;54139;42.616;23.748;2023-08-06T05:30:07;0.00;;;0.00;;
67227;SDS011;54139;42.616;23.748;2023-08-06T05:32:32;0.00;;;0.00;;
67227;SDS011;54139;42.616;23.748;2023-08-06T05:34:57;0.00;;;0.00;;
67227;SDS011;54139;42.616;23.748;2023-08-06T05:37:22;0.00;;;0.00;;
67227;SDS011;54139;42.616;23.748;2023-08-06T05:39:48;0.00;;;0.00;;
67227;SDS011;54139;42.616;23.748;2023-08-06T05:42:13;0.00;;;0.00;;
67227;SDS011;54139;42.616;23.748;2023-08-06T05:44:38;0.00;;;0.00;;
67227;SDS011;54139;42.616;23.748;2023-08-06T05:47:03;0.00;;;0.00;;
67227;SDS011;54139;42.616;23.748;2023-08-06T05:49:29;0.00;;;0.00;;
67227;SDS011;54139;42.616;23.748;2023-08-06T05:51:54;0.00;;;0.00;;
67227;SDS011;54139;42.616;23.748;2023-08-06T05:54:19;0.00;;;0.00;;
67227;SDS011;54139;42.616;23.748;2023-08-06T05:56:45;0.00;;;0.00;;
67227;SDS011;54139;42.616;23.748;2023-08-06T05:59:10;0.00;;;0.00;;
67227;SDS011;54139;42.616;23.748;2023-08-06T06:01:35;0.00;;;0.00;;
67227;SDS011;54139;42.616;23.748;2023-08-06T06:04:01;0.00;;;0.00;;
67227;SDS011;54139;42.616;23.748;2023-08-06T06:06:26;0.00;;;0.00;;
67227;SDS011;54139;42.616;23.748;2023-08-06T06:08:52;0.00;;;0.00;;
67227;SDS011;54139;42.616;23.748;2023-08-06T06:11:17;0.00;;;0.00;;
67227;SDS011;54139;42.616;23.748;2023-08-06T06:13:44;0.00;;;0.00;;
67227;SDS011;54139;42.616;23.748;2023-08-06T06:16:09;0.00;;;0.00;;
67227;SDS011;54139;42.616;23.748;2023-08-06T06:18:35;0.00;;;0.00;;
67227;SDS011;54139;42.616;23.748;2023-08-06T06:21:00;0.00;;;0.00;;
67227;SDS011;54139;42.616;23.748;2023-08-06T06:23:25;0.00;;;0.00;;
67227;SDS011;54139;42.616;23.748;2023-08-06T06:25:51;0.00;;;0.00;;
67227;SDS011;54139;42.616;23.748;2023-08-06T06:28:19;0.00;;;0.00;;
67227;SDS011;54139;42.616;23.748;2023-08-06T06:30:44;0.00;;;0.00;;
67227;SDS011;54139;42.616;23.748;2023-08-06T06:33:09;0.00;;;0.00;;
67227;SDS011;54139;42.616;23.748;2023-08-06T06:35:35;0.00;;;0.00;;
67227;SDS011;54139;42.616;23.748;2023-08-06T06:38:00;0.00;;;0.00;;
67227;SDS011;54139;42.616;23.748;2023-08-06T06:40:26;0.00;;;0.00;;
67227;SDS011;54139;42.616;23.748;2023-08-06T06:42:51;0.00;;;0.00;;
67227;SDS011;54139;42.616;23.748;2023-08-06T06:45:18;0.00;;;0.00;;
67227;SDS011;54139;42.616;23.748;2023-08-06T06:47:43;0.00;;;0.00;;
67227;SDS011;54139;42.616;23.748;2023-08-06T06:50:08;0.00;;;0.00;;
67227;SDS011;54139;42.616;23.748;2023-08-06T06:52:34;0.00;;;0.00;;
67227;SDS011;54139;42.616;23.748;2023-08-06T06:54:59;0.00;;;0.00;;
67227;SDS011;54139;42.616;23.748;2023-08-06T06:57:26;0.00;;;0.00;;
67227;SDS011;54139;42.616;23.748;2023-08-06T06:59:51;0.00;;;0.00;;
67227;SDS011;54139;42.616;23.748;2023-08-06T07:02:16;0.00;;;0.00;;
67227;SDS011;54139;42.616;23.748;2023-08-06T07:04:41;0.00;;;0.00;;
67227;SDS011;54139;42.616;23.748;2023-08-06T07:07:07;0.00;;;0.00;;
67227;SDS011;54139;42.616;23.748;2023-08-06T07:09:32;0.00;;;0.00;;
67227;SDS011;54139;42.616;23.748;2023-08-06T07:11:57;0.00;;;0.00;;
67227;SDS011;54139;42.616;23.748;2023-08-06T07:14:24;0.00;;;0.00;;
67227;SDS011;54139;42.616;23.748;2023-08-06T07:16:49;0.10;;;0.00;;
67227;SDS011;54139;42.616;23.748;2023-08-06T07:19:14;0.10;;;0.10;;
67227;SDS011;54139;42.616;23.748;2023-08-06T07:21:40;0.20;;;0.20;;
67227;SDS011;54139;42.616;23.748;2023-08-06T07:24:05;0.47;;;0.47;;
67227;SDS011;54139;42.616;23.748;2023-08-06T07:26:30;1.90;;;1.43;;
67227;SDS011;54139;42.616;23.748;2023-08-06T07:28:55;2.37;;;2.27;;
67227;SDS011;54139;42.616;23.748;2023-08-06T07:31:21;2.43;;;2.33;;
67227;SDS011;54139;42.616;23.748;2023-08-06T07:33:46;2.40;;;2.20;;
67227;SDS011;54139;42.616;23.748;2023-08-06T07:36:14;1.90;;;1.80;;
67227;SDS011;54139;42.616;23.748;2023-08-06T07:38:39;1.90;;;1.80;;
67227;SDS011;54139;42.616;23.748;2023-08-06T07:41:04;2.40;;;2.13;;
67227;SDS011;54139;42.616;23.748;2023-08-06T07:43:30;2.97;;;2.03;;
67227;SDS011;54139;42.616;23.748;2023-08-06T07:45:59;2.88;;;2.67;;
67227;SDS011;54139;42.616;23.748;2023-08-06T07:48:25;3.83;;;3.58;;
67227;SDS011;54139;42.616;23.748;2023-08-06T07:50:54;4.22;;;3.92;;
67227;SDS011;54139;42.616;23.748;2023-08-06T07:55:48;4.70;;;4.30;;
67227;SDS011;54139;42.616;23.748;2023-08-06T07:58:13;5.75;;;4.45;;
67227;SDS011;54139;42.616;23.748;2023-08-06T08:00:39;4.57;;;4.18;;
67227;SDS011;54139;42.616;23.748;2023-08-06T08:03:07;4.63;;;4.22;;
67227;SDS011;54139;42.616;23.748;2023-08-06T08:05:32;4.40;;;4.10;;
67227;SDS011;54139;42.616;23.748;2023-08-06T08:07:58;4.70;;;3.57;;
67227;SDS011;54139;42.616;23.748;2023-08-06T08:10:23;4.70;;;4.20;;
67227;SDS011;54139;42.616;23.748;2023-08-06T08:12:48;4.00;;;3.70;;
67227;SDS011;54139;42.616;23.748;2023-08-06T08:15:13;3.53;;;3.33;;
67227;SDS011;54139;42.616;23.748;2023-08-06T08:17:40;4.32;;;3.25;;
67227;SDS011;54139;42.616;23.748;2023-08-06T08:20:05;3.70;;;3.50;;
67227;SDS011;54139;42.616;23.748;2023-08-06T08:22:31;3.67;;;3.33;;
67227;SDS011;54139;42.616;23.748;2023-08-06T08:24:56;3.13;;;2.93;;
67227;SDS011;54139;42.616;23.748;2023-08-06T08:27:21;5.83;;;3.13;;
67227;SDS011;54139;42.616;23.748;2023-08-06T08:29:46;3.93;;;3.13;;
67227;SDS011;54139;42.616;23.748;2023-08-06T08:32:12;3.38;;;3.08;;
67227;SDS011;54139;42.616;23.748;2023-08-06T08:34:37;3.83;;;2.80;;
67227;SDS011;54139;42.616;23.748;2023-08-06T08:37:02;3.60;;;2.80;;
67227;SDS011;54139;42.616;23.748;2023-08-06T08:39:28;3.10;;;2.90;;
67227;SDS011;54139;42.616;23.748;2023-08-06T08:41:53;5.10;;;2.63;;
67227;SDS011;54139;42.616;23.748;2023-08-06T08:44:18;4.60;;;2.78;;
67227;SDS011;54139;42.616;23.748;2023-08-06T08:46:44;2.83;;;2.60;;
67227;SDS011;54139;42.616;23.748;2023-08-06T08:49:09;2.70;;;2.20;;
67227;SDS011;54139;42.616;23.748;2023-08-06T08:51:35;4.35;;;2.65;;
67227;SDS011;54139;42.616;23.748;2023-08-06T08:54:02;7.43;;;3.00;;
67227;SDS011;54139;42.616;23.748;2023-08-06T08:56:28;3.10;;;2.80;;
67227;SDS011;54139;42.616;23.748;2023-08-06T08:58:53;4.75;;;2.53;;
67227;SDS011;54139;42.616;23.748;2023-08-06T09:01:20;4.18;;;3.00;;
67227;SDS011;54139;42.616;23.748;2023-08-06T09:03:46;4.20;;;3.25;;
67227;SDS011;54139;42.616;23.748;2023-08-06T09:06:12;3.50;;;3.20;;
67227;SDS011;54139;42.616;23.748;2023-08-06T09:08:39;5.82;;;3.00;;
67227;SDS011;54139;42.616;23.748;2023-08-06T09:13:31;3.28;;;2.97;;
67227;SDS011;54139;42.616;23.748;2023-08-06T09:15:56;3.77;;;3.47;;
67227;SDS011;54139;42.616;23.748;2023-08-06T09:18:29;5.28;;;3.92;;
67227;SDS011;54139;42.616;23.748;2023-08-06T09:20:54;3.22;;;2.95;;
67227;SDS011;54139;42.616;23.748;2023-08-06T09:23:19;4.05;;;2.95;;
67227;SDS011;54139;42.616;23.748;2023-08-06T09:25:45;3.08;;;2.83;;
67227;SDS011;54139;42.616;23.748;2023-08-06T09:28:10;3.08;;;2.88;;
67227;SDS011;54139;42.616;23.748;2023-08-06T09:30:36;3.10;;;2.90;;
67227;SDS011;54139;42.616;23.748;2023-08-06T09:33:02;3.38;;;3.08;;
67227;SDS011;54139;42.616;23.748;2023-08-06T09:35:28;3.67;;;2.97;;
67227;SDS011;54139;42.616;23.748;2023-08-06T09:37:54;3.45;;;2.85;;
67227;SDS011;54139;42.616;23.748;2023-08-06T09:40:29;3.53;;;3.22;;
67227;SDS011;54139;42.616;23.748;2023-08-06T09:42:55;3.20;;;3.00;;
67227;SDS011;54139;42.616;23.748;2023-08-06T09:45:21;3.22;;;3.03;;
67227;SDS011;54139;42.616;23.748;2023-08-06T09:47:50;2.97;;;2.78;;
67227;SDS011;54139;42.616;23.748;2023-08-06T09:50:18;4.88;;;2.92;;
67227;SDS011;54139;42.616;23.748;2023-08-06T09:55:10;3.53;;;3.10;;
67227;SDS011;54139;42.616;23.748;2023-08-06T09:57:36;4.32;;;2.88;;
67227;SDS011;54139;42.616;23.748;2023-08-06T10:00:02;5.28;;;2.90;;
67227;SDS011;54139;42.616;23.748;2023-08-06T10:02:28;4.95;;;3.05;;
67227;SDS011;54139;42.616;23.748;2023-08-06T10:04:53;4.07;;;2.80;;
67227;SDS011;54139;42.616;23.748;2023-08-06T10:07:20;2.78;;;2.58;;
67227;SDS011;54139;42.616;23.748;2023-08-06T10:09:47;4.03;;;3.00;;
67227;SDS011;54139;42.616;23.748;2023-08-06T10:12:12;3.60;;;2.90;;
67227;SDS011;54139;42.616;23.748;2023-08-06T10:14:38;2.60;;;2.40;;
67227;SDS011;54139;42.616;23.748;2023-08-06T10:17:05;2.83;;;2.58;;
67227;SDS011;54139;42.616;23.748;2023-08-06T10:19:31;2.60;;;2.40;;
67227;SDS011;54139;42.616;23.748;2023-08-06T10:22:12;5.13;;;2.72;;
67227;SDS011;54139;42.616;23.748;2023-08-06T10:24:51;8.15;;;2.72;;
67227;SDS011;54139;42.616;23.748;2023-08-06T10:27:20;5.55;;;3.45;;
67227;SDS011;54139;42.616;23.748;2023-08-06T10:29:46;4.50;;;2.70;;
67227;SDS011;54139;42.616;23.748;2023-08-06T10:32:11;3.10;;;2.80;;
67227;SDS011;54139;42.616;23.748;2023-08-06T10:37:21;3.70;;;3.17;;
67227;SDS011;54139;42.616;23.748;2023-08-06T10:39:51;4.22;;;2.80;;
67227;SDS011;54139;42.616;23.748;2023-08-06T10:42:20;3.08;;;2.47;;
67227;SDS011;54139;42.616;23.748;2023-08-06T10:47:30;3.88;;;2.38;;
67227;SDS011;54139;42.616;23.748;2023-08-06T10:49:55;2.63;;;2.37;;
67227;SDS011;54139;42.616;23.748;2023-08-06T10:52:20;3.10;;;2.10;;
67227;SDS011;54139;42.616;23.748;2023-08-06T10:54:46;3.00;;;2.20;;
67227;SDS011;54139;42.616;23.748;2023-08-06T10:57:11;2.30;;;2.20;;
67227;SDS011;54139;42.616;23.748;2023-08-06T10:59:37;2.23;;;2.03;;
67227;SDS011;54139;42.616;23.748;2023-08-06T11:02:02;3.80;;;1.90;;
67227;SDS011;54139;42.616;23.748;2023-08-06T11:04:30;2.35;;;2.10;;
67227;SDS011;54139;42.616;23.748;2023-08-06T11:06:55;2.53;;;1.90;;
67227;SDS011;54139;42.616;23.748;2023-08-06T11:09:21;2.60;;;2.00;;
67227;SDS011;54139;42.616;23.748;2023-08-06T11:11:46;3.40;;;2.07;;
67227;SDS011;54139;42.616;23.748;2023-08-06T11:14:14;2.65;;;2.40;;
67227;SDS011;54139;42.616;23.748;2023-08-06T11:16:40;2.45;;;2.15;;
67227;SDS011;54139;42.616;23.748;2023-08-06T11:19:07;2.83;;;2.25;;
67227;SDS011;54139;42.616;23.748;2023-08-06T11:21:32;2.92;;;2.25;;
67227;SDS011;54139;42.616;23.748;2023-08-06T11:23:57;3.83;;;2.30;;
67227;SDS011;54139;42.616;23.748;2023-08-06T11:26:23;3.03;;;2.55;;
67227;SDS011;54139;42.616;23.748;2023-08-06T11:28:48;3.08;;;2.35;;
67227;SDS011;54139;42.616;23.748;2023-08-06T11:31:23;2.80;;;2.60;;
67227;SDS011;54139;42.616;23.748;2023-08-06T11:33:55;2.95;;;2.65;;
67227;SDS011;54139;42.616;23.748;2023-08-06T11:38:55;2.83;;;2.60;;
67227;SDS011;54139;42.616;23.748;2023-08-06T11:41:21;3.38;;;3.08;;
67227;SDS011;54139;42.616;23.748;2023-08-06T11:43:46;3.10;;;2.90;;
67227;SDS011;54139;42.616;23.748;2023-08-06T11:46:12;3.00;;;2.80;;
67227;SDS011;54139;42.616;23.748;2023-08-06T11:48:53;3.03;;;2.83;;
67227;SDS011;54139;42.616;23.748;2023-08-06T11:51:22;3.13;;;2.72;;
67227;SDS011;54139;42.616;23.748;2023-08-06T11:53:51;3.55;;;3.17;;
67227;SDS011;54139;42.616;23.748;2023-08-06T11:56:16;3.47;;;2.67;;
67227;SDS011;54139;42.616;23.748;2023-08-06T11:58:41;2.72;;;2.53;;
67227;SDS011;54139;42.616;23.748;2023-08-06T12:01:07;2.85;;;2.65;;
67227;SDS011;54139;42.616;23.748;2023-08-06T12:03:32;4.20;;;3.90;;
67227;SDS011;54139;42.616;23.748;2023-08-06T12:05:58;4.60;;;3.55;;
67227;SDS011;54139;42.616;23.748;2023-08-06T12:08:26;5.43;;;4.90;;
67227;SDS011;54139;42.616;23.748;2023-08-06T12:10:51;4.15;;;3.85;;
67227;SDS011;54139;42.616;23.748;2023-08-06T12:13:18;2.40;;;2.20;;
67227;SDS011;54139;42.616;23.748;2023-08-06T12:15:44;4.40;;;2.33;;
67227;SDS011;54139;42.616;23.748;2023-08-06T12:18:09;2.92;;;2.72;;
67227;SDS011;54139;42.616;23.748;2023-08-06T12:20:35;2.30;;;2.10;;
67227;SDS011;54139;42.616;23.748;2023-08-06T12:23:00;3.00;;;2.43;;
67227;SDS011;54139;42.616;23.748;2023-08-06T12:25:25;2.70;;;1.90;;
67227;SDS011;54139;42.616;23.748;2023-08-06T12:27:51;2.63;;;2.28;;
67227;SDS011;54139;42.616;23.748;2023-08-06T12:30:16;2.87;;;2.33;;
67227;SDS011;54139;42.616;23.748;2023-08-06T12:32:41;3.10;;;2.87;;
67227;SDS011;54139;42.616;23.748;2023-08-06T12:35:07;2.97;;;2.53;;
67227;SDS011;54139;42.616;23.748;2023-08-06T12:37:32;2.97;;;2.75;;
67227;SDS011;54139;42.616;23.748;2023-08-06T12:39:58;2.88;;;2.63;;
67227;SDS011;54139;42.616;23.748;2023-08-06T12:42:23;3.23;;;3.03;;
67227;SDS011;54139;42.616;23.748;2023-08-06T12:44:49;3.45;;;3.15;;
67227;SDS011;54139;42.616;23.748;2023-08-06T12:47:15;3.08;;;2.85;;
67227;SDS011;54139;42.616;23.748;2023-08-06T12:49:40;3.38;;;3.08;;
67227;SDS011;54139;42.616;23.748;2023-08-06T12:52:06;3.73;;;2.80;;
67227;SDS011;54139;42.616;23.748;2023-08-06T12:54:32;4.68;;;4.30;;
67227;SDS011;54139;42.616;23.748;2023-08-06T12:57:02;9.30;;;8.57;;
67227;SDS011;54139;42.616;23.748;2023-08-06T12:59:27;6.20;;;5.80;;
67227;SDS011;54139;42.616;23.748;2023-08-06T13:01:52;4.87;;;4.23;;
67227;SDS011;54139;42.616;23.748;2023-08-06T13:04:18;5.90;;;5.50;;
67227;SDS011;54139;42.616;23.748;2023-08-06T13:06:43;4.60;;;4.28;;
67227;SDS011;54139;42.616;23.748;2023-08-06T13:09:09;4.53;;;4.13;;
67227;SDS011;54139;42.616;23.748;2023-08-06T13:11:34;5.05;;;4.65;;
67227;SDS011;54139;42.616;23.748;2023-08-06T13:14:04;5.05;;;4.65;;
67227;SDS011;54139;42.616;23.748;2023-08-06T13:16:29;4.88;;;4.57;;
67227;SDS011;54139;42.616;23.748;2023-08-06T13:18:55;5.03;;;4.73;;
67227;SDS011;54139;42.616;23.748;2023-08-06T13:21:20;5.90;;;5.07;;
67227;SDS011;54139;42.616;23.748;2023-08-06T13:23:45;4.90;;;4.50;;
67227;SDS011;54139;42.616;23.748;2023-08-06T13:26:10;5.07;;;4.73;;
67227;SDS011;54139;42.616;23.748;2023-08-06T13:28:36;5.00;;;4.60;;
67227;SDS011;54139;42.616;23.748;2023-08-06T13:31:01;5.20;;;4.43;;
67227;SDS011;54139;42.616;23.748;2023-08-06T13:33:26;5.67;;;4.50;;
67227;SDS011;54139;42.616;23.748;2023-08-06T13:35:52;4.90;;;4.50;;
67227;SDS011;54139;42.616;23.748;2023-08-06T13:38:17;4.85;;;4.55;;
67227;SDS011;54139;42.616;23.748;2023-08-06T13:40:42;5.27;;;4.77;;
67227;SDS011;54139;42.616;23.748;2023-08-06T13:43:09;5.18;;;4.70;;
67227;SDS011;54139;42.616;23.748;2023-08-06T13:45:34;5.43;;;4.90;;
67227;SDS011;54139;42.616;23.748;2023-08-06T13:48:00;5.57;;;5.03;;
67227;SDS011;54139;42.616;23.748;2023-08-06T13:50:26;4.38;;;4.18;;
67227;SDS011;54139;42.616;23.748;2023-08-06T13:52:51;7.03;;;4.70;;
67227;SDS011;54139;42.616;23.748;2023-08-06T13:55:18;5.78;;;5.28;;
67227;SDS011;54139;42.616;23.748;2023-08-06T13:57:43;5.10;;;4.72;;
67227;SDS011;54139;42.616;23.748;2023-08-06T14:00:10;6.57;;;5.10;;
67227;SDS011;54139;42.616;23.748;2023-08-06T14:02:35;5.43;;;5.03;;
67227;SDS011;54139;42.616;23.748;2023-08-06T14:05:01;5.17;;;4.80;;
67227;SDS011;54139;42.616;23.748;2023-08-06T14:07:26;5.18;;;4.68;;
67227;SDS011;54139;42.616;23.748;2023-08-06T14:09:51;5.10;;;4.70;;
67227;SDS011;54139;42.616;23.748;2023-08-06T14:12:17;5.82;;;5.32;;
67227;SDS011;54139;42.616;23.748;2023-08-06T14:14:42;5.78;;;5.38;;
67227;SDS011;54139;42.616;23.748;2023-08-06T14:17:08;5.32;;;4.90;;
67227;SDS011;54139;42.616;23.748;2023-08-06T14:19:34;6.13;;;5.63;;
67227;SDS011;54139;42.616;23.748;2023-08-06T14:21:59;5.35;;;5.05;;
67227;SDS011;54139;42.616;23.748;2023-08-06T14:24:25;5.28;;;4.90;;
67227;SDS011;54139;42.616;23.748;2023-08-06T14:26:50;5.73;;;4.97;;
67227;SDS011;54139;42.616;23.748;2023-08-06T14:29:16;5.22;;;4.43;;
67227;SDS011;54139;42.616;23.748;2023-08-06T14:31:41;4.73;;;4.43;;
67227;SDS011;54139;42.616;23.748;2023-08-06T14:34:07;4.60;;;4.13;;
67227;SDS011;54139;42.616;23.748;2023-08-06T14:36:32;4.55;;;4.15;;
67227;SDS011;54139;42.616;23.748;2023-08-06T14:38:57;4.55;;;4.25;;
67227;SDS011;54139;42.616;23.748;2023-08-06T14:41:23;5.03;;;4.28;;
67227;SDS011;54139;42.616;23.748;2023-08-06T14:43:49;5.57;;;4.80;;
67227;SDS011;54139;42.616;23.748;2023-08-06T14:46:14;4.90;;;4.57;;
67227;SDS011;54139;42.616;23.748;2023-08-06T14:48:39;4.70;;;4.37;;
67227;SDS011;54139;42.616;23.748;2023-08-06T14:51:05;5.35;;;4.95;;
67227;SDS011;54139;42.616;23.748;2023-08-06T14:53:30;5.23;;;4.47;;
67227;SDS011;54139;42.616;23.748;2023-08-06T14:55:55;4.80;;;4.30;;
67227;SDS011;54139;42.616;23.748;2023-08-06T14:58:21;4.47;;;4.07;;
67227;SDS011;54139;42.616;23.748;2023-08-06T15:00:46;5.03;;;4.63;;